Time;durP1;ratioP1;P1;durP2;ratioP2;P2;SDS_P1;SDS_P2;PMS_P1;PMS_P2;Temp;Humidity;BMP_temperature;BMP_pressure;BME280_temperature;BME280_humidity;BME280_pressure;Samples;Min_cycle;Max_cycle;Signal;HPM_P1;HPM_P2
2023/03/29 00:00:21;;;;;;;;;;;6.10;73.70;;;;;;4975222;28;19960;-96
2023/03/29 00:02:47;;;;;;;;;;;6.20;74.30;;;;;;4992732;28;19914;-96
2023/03/29 00:05:14;;;;;;;;;;;6.20;74.90;;;;;;4975446;28;19946;-96
2023/03/29 00:07:41;;;;;;;;;;;6.30;75.50;;;;;;4975950;28;19933;-96
2023/03/29 00:10:10;;;;;;;;;;;6.30;75.10;;;;;;4993138;28;19918;-96
2023/03/29 00:12:36;;;;;;;;;;;6.40;75.10;;;;;;4976282;28;19910;-96
2023/03/29 00:15:03;;;;;;;;;;;6.50;74.80;;;;;;4975343;28;19914;-96
2023/03/29 00:17:29;;;;;;;;;;;6.50;74.60;;;;;;4975101;28;19914;-96
2023/03/29 00:19:55;;;;;;;;;;;6.50;74.50;;;;;;4975337;28;19961;-96
2023/03/29 00:22:21;;;;;;;;;;;6.50;74.70;;;;;;4975781;28;19915;-96
2023/03/29 00:24:48;;;;;;;;;;;6.60;74.40;;;;;;4975228;28;19977;-96
2023/03/29 00:27:14;;;;;;;;;;;6.60;74.20;;;;;;4975585;28;19915;-96
2023/03/29 00:29:40;;;;;;;;;;;6.50;74.80;;;;;;4974214;28;19937;-96
2023/03/29 00:32:06;;;;;;;;;;;6.50;75.00;;;;;;4971444;28;19910;-96
2023/03/29 00:34:34;;;;;;;;;;;6.60;74.30;;;;;;4972593;28;19922;-96
2023/03/29 00:37:01;;;;;;;;;;;6.80;73.70;;;;;;4974304;28;19956;-96
2023/03/29 00:39:27;;;;;;;;;;;6.90;73.50;;;;;;4975682;28;19911;-96
2023/03/29 00:41:53;;;;;;;;;;;7.00;73.60;;;;;;4994228;28;19961;-96
2023/03/29 00:44:38;;;;;;;;;;;7.10;73.30;;;;;;4994458;28;19914;-96
2023/03/29 00:47:04;;;;;;;;;;;7.00;73.50;;;;;;4977829;28;19911;-96
2023/03/29 00:49:29;;;;;;;;;;;6.90;74.30;;;;;;4977710;28;19914;-96
2023/03/29 00:51:57;;;;;;;;;;;6.90;75.10;;;;;;4997777;28;19895;-96
2023/03/29 00:54:25;;;;;;;;;;;6.90;76.50;;;;;;4981628;28;19894;-96
2023/03/29 00:56:51;;;;;;;;;;;6.90;76.00;;;;;;4980735;28;19914;-96
2023/03/29 00:59:22;;;;;;;;;;;6.80;75.50;;;;;;4980475;28;19941;-96
2023/03/29 01:02:15;;;;;;;;;;;6.70;75.10;;;;;;4997085;28;19922;-96
2023/03/29 01:04:50;;;;;;;;;;;6.60;75.30;;;;;;4976489;28;19957;-96
2023/03/29 01:07:35;;;;;;;;;;;6.50;76.30;;;;;;4978801;28;19910;-96
2023/03/29 01:10:05;;;;;;;;;;;6.50;76.60;;;;;;4997251;28;19918;-96
2023/03/29 01:12:34;;;;;;;;;;;6.50;76.50;;;;;;4978543;28;19973;-96
2023/03/29 01:15:11;;;;;;;;;;;6.50;76.50;;;;;;4978653;28;19914;-96
2023/03/29 01:17:39;;;;;;;;;;;6.50;77.20;;;;;;4996004;28;19938;-96
2023/03/29 01:20:18;;;;;;;;;;;6.50;77.50;;;;;;4978558;28;19902;-96
2023/03/29 01:22:44;;;;;;;;;;;6.50;77.50;;;;;;4980012;28;19914;-96
2023/03/29 01:25:14;;;;;;;;;;;6.40;77.70;;;;;;4979693;28;19918;-96
2023/03/29 01:27:40;;;;;;;;;;;6.50;77.20;;;;;;4980046;28;19910;-96
2023/03/29 01:30:09;;;;;;;;;;;6.50;76.80;;;;;;4978976;28;19944;-96
2023/03/29 01:32:45;;;;;;;;;;;6.40;76.60;;;;;;4979580;28;19910;-96
2023/03/29 01:35:17;;;;;;;;;;;6.50;76.80;;;;;;4978411;28;19926;-96
2023/03/29 01:37:47;;;;;;;;;;;6.50;76.50;;;;;;4978954;28;19910;-96
2023/03/29 01:40:13;;;;;;;;;;;6.50;76.20;;;;;;4978965;28;19917;-96
2023/03/29 01:42:42;;;;;;;;;;;6.50;76.40;;;;;;4978975;28;19898;-96
2023/03/29 01:45:14;;;;;;;;;;;6.50;76.80;;;;;;4978789;28;19914;-96
2023/03/29 01:47:58;;;;;;;;;;;6.60;76.60;;;;;;4979206;28;19915;-96
2023/03/29 01:50:37;;;;;;;;;;;6.50;76.70;;;;;;4978094;28;19965;-96
2023/03/29 01:53:05;;;;;;;;;;;6.30;77.50;;;;;;4995080;28;19933;-96
2023/03/29 01:55:33;;;;;;;;;;;6.30;78.20;;;;;;4978130;28;19977;-96
2023/03/29 01:58:00;;;;;;;;;;;6.30;78.40;;;;;;4977825;28;19935;-96
2023/03/29 02:00:29;;;;;;;;;;;6.40;78.00;;;;;;4978488;28;19910;-96
2023/03/29 02:02:59;;;;;;;;;;;6.40;77.70;;;;;;4977666;28;19921;-96
2023/03/29 02:05:27;;;;;;;;;;;6.40;78.00;;;;;;4978612;28;19910;-96
2023/03/29 02:07:55;;;;;;;;;;;6.40;78.30;;;;;;4978079;28;19910;-96
2023/03/29 02:10:23;;;;;;;;;;;6.40;78.50;;;;;;4978739;28;19970;-96
2023/03/29 02:12:49;;;;;;;;;;;6.40;78.50;;;;;;4979174;28;19910;-96
2023/03/29 02:15:20;;;;;;;;;;;6.40;78.80;;;;;;4995718;28;19910;-96
2023/03/29 02:17:48;;;;;;;;;;;6.40;78.40;;;;;;4977899;28;19910;-96
2023/03/29 02:20:21;;;;;;;;;;;6.40;78.20;;;;;;4995169;28;19916;-96
2023/03/29 02:22:50;;;;;;;;;;;6.50;78.30;;;;;;4977961;28;19914;-96
2023/03/29 02:25:18;;;;;;;;;;;6.30;79.20;;;;;;4977096;28;19910;-96
2023/03/29 02:27:44;;;;;;;;;;;6.20;79.70;;;;;;4978041;28;19910;-96
2023/03/29 02:30:11;;;;;;;;;;;6.20;79.90;;;;;;4977185;28;19973;-96
2023/03/29 02:32:40;;;;;;;;;;;6.30;79.20;;;;;;4977595;28;19910;-96
2023/03/29 02:35:12;;;;;;;;;;;6.30;79.50;;;;;;5052141;23;19950;-96
2023/03/29 02:37:41;;;;;;;;;;;6.30;79.90;;;;;;4976245;29;19914;-96
2023/03/29 02:40:11;;;;;;;;;;;6.20;79.80;;;;;;4958524;29;19911;-96
2023/03/29 02:42:38;;;;;;;;;;;6.10;80.00;;;;;;4958830;29;19898;-96
2023/03/29 02:45:06;;;;;;;;;;;6.10;80.60;;;;;;4975270;29;19911;-96
2023/03/29 02:47:34;;;;;;;;;;;6.10;81.10;;;;;;4957888;29;19949;-96
2023/03/29 02:50:01;;;;;;;;;;;6.20;80.40;;;;;;4957972;29;20049;-96
2023/03/29 02:52:33;;;;;;;;;;;6.20;80.10;;;;;;4958019;29;19911;-96
2023/03/29 02:55:01;;;;;;;;;;;6.20;80.80;;;;;;4957653;29;19934;-96
2023/03/29 02:57:27;;;;;;;;;;;6.30;79.20;;;;;;4974594;29;19932;-96
2023/03/29 02:59:54;;;;;;;;;;;6.40;79.00;;;;;;4957654;29;19911;-96
2023/03/29 03:02:20;;;;;;;;;;;6.40;79.00;;;;;;4957574;29;20002;-96
2023/03/29 03:04:46;;;;;;;;;;;6.40;77.60;;;;;;4958084;29;19910;-96
2023/03/29 03:07:12;;;;;;;;;;;6.50;78.00;;;;;;4974869;29;19957;-96
2023/03/29 03:09:38;;;;;;;;;;;6.50;78.40;;;;;;4958432;29;19942;-96
2023/03/29 03:12:05;;;;;;;;;;;6.50;78.70;;;;;;4974595;28;19918;-96
2023/03/29 03:14:31;;;;;;;;;;;6.40;79.30;;;;;;4958175;29;19945;-96
2023/03/29 03:16:57;;;;;;;;;;;6.40;79.40;;;;;;4957493;29;19934;-96
2023/03/29 03:19:23;;;;;;;;;;;6.40;79.00;;;;;;4957522;29;19933;-97
2023/03/29 03:21:49;;;;;;;;;;;6.50;78.50;;;;;;4956542;29;19957;-96
2023/03/29 03:24:16;;;;;;;;;;;6.60;78.00;;;;;;4956900;29;19965;-96
2023/03/29 03:26:45;;;;;;;;;;;6.60;78.90;;;;;;4956492;29;20427;-96
2023/03/29 03:29:11;;;;;;;;;;;6.70;79.70;;;;;;4974593;29;19918;-96
2023/03/29 03:31:40;;;;;;;;;;;6.80;79.40;;;;;;4957170;29;19910;-96
2023/03/29 03:34:07;;;;;;;;;;;6.90;78.20;;;;;;4957717;29;19911;-96
2023/03/29 03:36:34;;;;;;;;;;;6.90;78.00;;;;;;4969469;29;19929;-96
2023/03/29 03:39:01;;;;;;;;;;;7.00;78.60;;;;;;4973461;29;19914;-96
2023/03/29 03:41:30;;;;;;;;;;;6.90;78.30;;;;;;4973610;28;19973;-96
2023/03/29 03:43:56;;;;;;;;;;;6.90;77.60;;;;;;4972106;29;19911;-96
2023/03/29 03:46:22;;;;;;;;;;;7.00;76.10;;;;;;4974120;28;20291;-96
2023/03/29 03:48:48;;;;;;;;;;;7.00;76.00;;;;;;4972687;29;19911;-96
2023/03/29 03:51:14;;;;;;;;;;;7.00;79.30;;;;;;4972370;29;20384;-96
2023/03/29 03:53:40;;;;;;;;;;;6.90;79.20;;;;;;4972804;29;19929;-96
2023/03/29 03:56:07;;;;;;;;;;;7.00;77.60;;;;;;4973153;29;19918;-96
2023/03/29 03:58:35;;;;;;;;;;;7.00;77.90;;;;;;4973047;29;19911;-96
2023/03/29 04:01:01;;;;;;;;;;;7.00;77.40;;;;;;4971710;29;19914;-96
2023/03/29 04:03:27;;;;;;;;;;;7.10;74.20;;;;;;4971640;28;19902;-96
2023/03/29 04:05:53;;;;;;;;;;;7.20;73.80;;;;;;4971381;28;19910;-96
2023/03/29 04:08:21;;;;;;;;;;;7.20;73.40;;;;;;4972662;29;19921;-96
2023/03/29 04:10:53;;;;;;;;;;;7.30;75.40;;;;;;4974079;29;19911;-96
2023/03/29 04:13:19;;;;;;;;;;;7.30;76.80;;;;;;4976471;29;19917;-96
2023/03/29 04:15:55;;;;;;;;;;;7.20;76.60;;;;;;4978026;28;19911;-96
2023/03/29 04:18:21;;;;;;;;;;;7.10;75.10;;;;;;4974834;29;19917;-96
2023/03/29 04:20:48;;;;;;;;;;;7.20;73.70;;;;;;4973785;29;19938;-96
2023/03/29 04:23:14;;;;;;;;;;;7.10;74.20;;;;;;4973962;29;19910;-96
2023/03/29 04:25:41;;;;;;;;;;;7.10;73.90;;;;;;4975632;28;19915;-96
2023/03/29 04:28:08;;;;;;;;;;;7.10;73.60;;;;;;4977000;28;19917;-96
2023/03/29 04:30:34;;;;;;;;;;;7.20;72.90;;;;;;4975521;29;20416;-96
2023/03/29 04:33:00;;;;;;;;;;;7.20;72.70;;;;;;4973668;29;19915;-95
2023/03/29 04:35:26;;;;;;;;;;;7.30;72.70;;;;;;4973810;29;19964;-96
2023/03/29 04:37:53;;;;;;;;;;;7.30;72.70;;;;;;4973771;29;20017;-96
2023/03/29 04:40:19;;;;;;;;;;;7.30;72.70;;;;;;4974225;29;20446;-96
2023/03/29 04:42:46;;;;;;;;;;;7.30;73.50;;;;;;4975809;29;19914;-96
2023/03/29 04:45:18;;;;;;;;;;;7.10;74.60;;;;;;4975989;29;19917;-96
2023/03/29 04:47:44;;;;;;;;;;;7.10;74.10;;;;;;4973670;29;19910;-96
2023/03/29 04:50:11;;;;;;;;;;;7.00;74.50;;;;;;4972831;29;19965;-96
2023/03/29 04:52:36;;;;;;;;;;;7.00;74.40;;;;;;4974109;28;19911;-96
2023/03/29 04:55:04;;;;;;;;;;;7.00;74.20;;;;;;4972336;29;19910;-96
2023/03/29 04:57:29;;;;;;;;;;;7.10;74.30;;;;;;4970765;29;19914;-96
2023/03/29 04:59:55;;;;;;;;;;;7.20;73.50;;;;;;4967763;29;19957;-96
2023/03/29 05:02:21;;;;;;;;;;;7.30;73.10;;;;;;4968008;28;19949;-96
2023/03/29 05:04:47;;;;;;;;;;;7.30;73.20;;;;;;4967411;29;19915;-96
2023/03/29 05:07:14;;;;;;;;;;;7.30;72.80;;;;;;4967693;29;19911;-96
2023/03/29 05:09:40;;;;;;;;;;;7.40;72.70;;;;;;4964158;29;19914;-96
2023/03/29 05:12:06;;;;;;;;;;;7.50;72.40;;;;;;4965157;28;19910;-96
2023/03/29 05:14:32;;;;;;;;;;;7.60;72.10;;;;;;4967428;29;19911;-96
2023/03/29 05:16:58;;;;;;;;;;;7.70;71.70;;;;;;4970867;28;19981;-96
2023/03/29 05:19:24;;;;;;;;;;;7.70;71.10;;;;;;4972304;28;19918;-96
2023/03/29 05:21:51;;;;;;;;;;;7.90;70.60;;;;;;4972994;29;20043;-96
2023/03/29 05:24:18;;;;;;;;;;;8.00;70.30;;;;;;4974799;28;19915;-96
2023/03/29 05:26:46;;;;;;;;;;;8.10;70.30;;;;;;4972444;29;19910;-96
2023/03/29 05:29:12;;;;;;;;;;;8.10;70.30;;;;;;4971885;29;19911;-96
2023/03/29 05:31:38;;;;;;;;;;;8.10;70.50;;;;;;4972821;28;20394;-96
2023/03/29 05:34:05;;;;;;;;;;;8.00;71.10;;;;;;4971938;29;19950;-96
2023/03/29 05:36:31;;;;;;;;;;;8.00;70.60;;;;;;4971862;28;19970;-96
2023/03/29 05:38:58;;;;;;;;;;;8.00;70.00;;;;;;4969489;28;19910;-96
2023/03/29 05:41:24;;;;;;;;;;;8.10;69.50;;;;;;4966909;29;20312;-96
2023/03/29 05:43:50;;;;;;;;;;;8.20;68.70;;;;;;4969142;28;19922;-96
2023/03/29 05:46:16;;;;;;;;;;;8.20;68.80;;;;;;4969607;29;19911;-96
2023/03/29 05:48:41;;;;;;;;;;;8.30;68.40;;;;;;4964163;28;19910;-96
2023/03/29 05:51:07;;;;;;;;;;;8.40;68.10;;;;;;4956086;29;20348;-96
2023/03/29 05:53:33;;;;;;;;;;;8.40;68.30;;;;;;4957586;29;19910;-96
2023/03/29 05:55:58;;;;;;;;;;;8.60;67.60;;;;;;4956266;29;20442;-96
2023/03/29 05:58:25;;;;;;;;;;;8.70;67.60;;;;;;4968768;29;19911;-96
2023/03/29 06:00:51;;;;;;;;;;;8.70;67.80;;;;;;4965851;29;19918;-95
2023/03/29 06:03:18;;;;;;;;;;;8.70;68.50;;;;;;4957050;28;19918;-94
2023/03/29 06:05:48;;;;;;;;;;;8.70;68.70;;;;;;4965252;29;19926;-95
2023/03/29 06:11:07;;;;;;;;;;;8.70;67.60;;;;;;5250419;23;19910;-96
2023/03/29 16:38:28;;;;;;;;;;;19.30;41.40;;;;;;6181288;22;6357502;-96
2023/03/29 16:40:55;;;;;;;;;;;19.10;44.90;;;;;;6216296;23;19908;-96
2023/03/29 16:43:22;;;;;;;;;;;19.00;43.00;;;;;;6216981;23;19888;-96
2023/03/29 16:45:59;;;;;;;;;;;19.00;43.40;;;;;;6242474;23;19912;-96
2023/03/29 16:48:42;;;;;;;;;;;18.90;43.80;;;;;;6242534;23;19915;-96
2023/03/29 16:51:11;;;;;;;;;;;19.00;43.70;;;;;;6214183;23;19904;-96
2023/03/29 16:53:40;;;;;;;;;;;19.10;43.90;;;;;;6216016;23;19957;-96
2023/03/29 16:56:09;;;;;;;;;;;19.20;43.90;;;;;;6191026;23;19960;-96
2023/03/29 16:58:39;;;;;;;;;;;19.00;45.10;;;;;;6217330;23;19924;-96
2023/03/29 17:01:16;;;;;;;;;;;18.90;44.60;;;;;;6217428;23;19908;-96
2023/03/29 17:03:47;;;;;;;;;;;18.70;45.30;;;;;;6216337;23;19888;-96
2023/03/29 17:06:26;;;;;;;;;;;18.60;45.20;;;;;;6217143;23;19895;-96
2023/03/29 17:08:57;;;;;;;;;;;18.50;44.80;;;;;;6217469;23;19910;-98
2023/03/29 17:11:35;;;;;;;;;;;18.30;44.70;;;;;;6217830;23;19923;-96
2023/03/29 17:14:20;;;;;;;;;;;18.10;47.70;;;;;;6214908;23;19935;-96
2023/03/29 17:52:23;;;;;;;;;;;16.40;50.90;;;;;;6194854;22;19911;-96
2023/03/29 22:52:30;;;;;;;;;;;11.00;80.40;;;;;;6213901;22;19911;-96
2023/03/29 23:21:04;;;;;;;;;;;10.70;81.50;;;;;;6210200;22;19920;-96
